sensor_id;sensor_type;location;lat;lon;timestamp;pressure;altitude;pressure_sealevel;temperature;humidity
41102;BME280;26845;50.190;19.178;2023-04-30T07:57:07;98954.94;;;14.18;78.54
41102;BME280;26845;50.190;19.178;2023-04-30T07:59:41;98961.11;;;14.47;78.51
41102;BME280;26845;50.190;19.178;2023-04-30T08:07:44;98965.17;;;15.06;77.26
41102;BME280;26845;50.190;19.178;2023-04-30T08:20:35;98979.20;;;15.62;72.36
41102;BME280;26845;50.190;19.178;2023-04-30T08:23:47;98979.13;;;15.55;72.00
41102;BME280;26845;50.190;19.178;2023-04-30T08:26:15;98977.30;;;15.56;72.80
41102;BME280;26845;50.190;19.178;2023-04-30T08:28:49;98975.83;;;15.75;73.17
41102;BME280;26845;50.190;19.178;2023-04-30T08:31:22;98975.20;;;16.03;72.74
41102;BME280;26845;50.190;19.178;2023-04-30T08:33:56;98975.21;;;16.28;72.28
41102;BME280;26845;50.190;19.178;2023-04-30T08:36:29;98971.85;;;16.48;71.67
41102;BME280;26845;50.190;19.178;2023-04-30T08:39:03;98977.84;;;16.68;70.30
41102;BME280;26845;50.190;19.178;2023-04-30T08:41:36;98978.45;;;16.85;70.72
41102;BME280;26845;50.190;19.178;2023-04-30T08:44:10;98974.92;;;17.06;70.16
41102;BME280;26845;50.190;19.178;2023-04-30T08:46:43;98976.42;;;17.13;69.83
41102;BME280;26845;50.190;19.178;2023-04-30T08:49:17;98975.36;;;17.29;69.81
41102;BME280;26845;50.190;19.178;2023-04-30T08:52:20;98975.63;;;17.52;68.74
41102;BME280;26845;50.190;19.178;2023-04-30T08:54:54;98980.41;;;17.46;64.39
41102;BME280;26845;50.190;19.178;2023-04-30T08:57:27;98979.52;;;16.81;62.47
41102;BME280;26845;50.190;19.178;2023-04-30T09:00:01;98983.63;;;16.35;65.85
41102;BME280;26845;50.190;19.178;2023-04-30T09:02:34;98988.31;;;16.12;64.78
41102;BME280;26845;50.190;19.178;2023-04-30T09:05:11;98990.61;;;15.76;64.53
41102;BME280;26845;50.190;19.178;2023-04-30T09:07:44;98986.08;;;15.70;63.56
41102;BME280;26845;50.190;19.178;2023-04-30T09:10:18;98986.27;;;15.67;64.38
41102;BME280;26845;50.190;19.178;2023-04-30T09:12:58;98987.39;;;15.69;65.13
41102;BME280;26845;50.190;19.178;2023-04-30T09:15:31;98989.70;;;16.01;65.10
41102;BME280;26845;50.190;19.178;2023-04-30T09:18:15;98990.53;;;16.41;65.43
41102;BME280;26845;50.190;19.178;2023-04-30T09:24:01;98996.36;;;16.57;63.63
41102;BME280;26845;50.190;19.178;2023-04-30T09:27:14;98996.98;;;16.75;64.26
41102;BME280;26845;50.190;19.178;2023-04-30T09:29:42;98998.89;;;17.13;64.09
41102;BME280;26845;50.190;19.178;2023-04-30T09:32:54;98993.66;;;17.58;63.62
41102;BME280;26845;50.190;19.178;2023-04-30T09:35:48;98993.76;;;17.76;60.96
41102;BME280;26845;50.190;19.178;2023-04-30T09:39:06;98996.99;;;17.65;61.51
41102;BME280;26845;50.190;19.178;2023-04-30T09:42:07;98995.41;;;17.74;62.48
41102;BME280;26845;50.190;19.178;2023-04-30T09:45:12;98989.43;;;17.90;60.52
41102;BME280;26845;50.190;19.178;2023-04-30T09:48:23;98994.27;;;17.70;60.94
41102;BME280;26845;50.190;19.178;2023-04-30T09:51:28;98995.90;;;17.55;58.46
41102;BME280;26845;50.190;19.178;2023-04-30T09:54:34;98988.81;;;17.65;59.83
41102;BME280;26845;50.190;19.178;2023-04-30T09:57:41;98986.05;;;18.02;60.03
41102;BME280;26845;50.190;19.178;2023-04-30T10:00:46;98979.61;;;18.33;59.12
41102;BME280;26845;50.190;19.178;2023-04-30T10:03:52;98982.64;;;18.33;57.99
41102;BME280;26845;50.190;19.178;2023-04-30T10:07:04;98982.85;;;18.28;55.36
41102;BME280;26845;50.190;19.178;2023-04-30T10:10:08;98975.46;;;18.28;53.76
41102;BME280;26845;50.190;19.178;2023-04-30T10:12:53;98972.41;;;18.03;53.29
41102;BME280;26845;50.190;19.178;2023-04-30T10:16:00;98980.46;;;17.57;51.51
41102;BME280;26845;50.190;19.178;2023-04-30T10:19:14;98978.85;;;17.51;55.74
41102;BME280;26845;50.190;19.178;2023-04-30T10:22:19;98972.88;;;17.90;53.61
41102;BME280;26845;50.190;19.178;2023-04-30T10:25:25;98976.47;;;18.24;55.51
41102;BME280;26845;50.190;19.178;2023-04-30T10:28:31;98970.69;;;18.74;55.53
41102;BME280;26845;50.190;19.178;2023-04-30T10:31:36;98975.41;;;18.97;53.45
41102;BME280;26845;50.190;19.178;2023-04-30T10:37:52;98967.64;;;18.89;52.95
41102;BME280;26845;50.190;19.178;2023-04-30T10:40:57;98974.27;;;19.08;53.48
41102;BME280;26845;50.190;19.178;2023-04-30T10:44:02;98969.80;;;19.38;53.10
41102;BME280;26845;50.190;19.178;2023-04-30T10:47:08;98963.35;;;19.58;52.47
41102;BME280;26845;50.190;19.178;2023-04-30T10:50:13;98963.81;;;19.44;48.50
41102;BME280;26845;50.190;19.178;2023-04-30T10:53:20;98964.14;;;19.40;51.67
41102;BME280;26845;50.190;19.178;2023-04-30T10:56:29;98960.77;;;19.69;51.97
41102;BME280;26845;50.190;19.178;2023-04-30T10:59:34;98949.42;;;19.95;51.07
41102;BME280;26845;50.190;19.178;2023-04-30T11:02:40;98957.30;;;19.94;50.90
41102;BME280;26845;50.190;19.178;2023-04-30T11:05:46;98962.98;;;20.17;51.15
41102;BME280;26845;50.190;19.178;2023-04-30T11:08:51;98959.65;;;20.44;50.77
41102;BME280;26845;50.190;19.178;2023-04-30T11:12:10;98955.02;;;20.46;48.95
41102;BME280;26845;50.190;19.178;2023-04-30T11:15:15;98960.07;;;20.35;49.40
41102;BME280;26845;50.190;19.178;2023-04-30T11:18:20;98961.76;;;20.44;49.17
41102;BME280;26845;50.190;19.178;2023-04-30T11:21:26;98963.73;;;20.66;49.41
41102;BME280;26845;50.190;19.178;2023-04-30T11:27:36;98961.39;;;20.87;47.12
41102;BME280;26845;50.190;19.178;2023-04-30T11:33:56;98960.80;;;20.98;47.39
41102;BME280;26845;50.190;19.178;2023-04-30T11:37:02;98963.90;;;21.13;46.53
41102;BME280;26845;50.190;19.178;2023-04-30T11:40:09;98965.02;;;21.11;46.55
41102;BME280;26845;50.190;19.178;2023-04-30T11:43:23;98962.84;;;20.72;42.27
41102;BME280;26845;50.190;19.178;2023-04-30T11:46:29;98966.60;;;19.97;43.91
41102;BME280;26845;50.190;19.178;2023-04-30T11:49:35;98965.17;;;19.89;44.88
41102;BME280;26845;50.190;19.178;2023-04-30T11:52:41;98964.61;;;20.08;45.32
41102;BME280;26845;50.190;19.178;2023-04-30T11:55:46;98969.92;;;20.40;45.85
41102;BME280;26845;50.190;19.178;2023-04-30T11:58:52;98961.89;;;20.72;45.76
41102;BME280;26845;50.190;19.178;2023-04-30T12:01:58;98958.56;;;21.06;45.36
41102;BME280;26845;50.190;19.178;2023-04-30T12:05:04;98956.70;;;21.24;45.28
41102;BME280;26845;50.190;19.178;2023-04-30T12:08:09;98955.63;;;21.29;43.94
41102;BME280;26845;50.190;19.178;2023-04-30T12:11:19;98957.31;;;21.35;44.71
41102;BME280;26845;50.190;19.178;2023-04-30T12:14:24;98962.82;;;21.54;44.50
41102;BME280;26845;50.190;19.178;2023-04-30T12:17:33;98959.36;;;21.62;40.76
41102;BME280;26845;50.190;19.178;2023-04-30T12:20:35;98959.56;;;21.02;39.85
41102;BME280;26845;50.190;19.178;2023-04-30T12:23:40;98960.31;;;20.92;42.95
41102;BME280;26845;50.190;19.178;2023-04-30T12:26:46;98951.43;;;21.16;42.52
41102;BME280;26845;50.190;19.178;2023-04-30T12:29:52;98948.77;;;21.17;41.49
41102;BME280;26845;50.190;19.178;2023-04-30T12:32:58;98950.50;;;21.06;40.67
41102;BME280;26845;50.190;19.178;2023-04-30T12:36:03;98944.17;;;20.87;39.52
41102;BME280;26845;50.190;19.178;2023-04-30T12:39:13;98943.84;;;20.43;40.43
41102;BME280;26845;50.190;19.178;2023-04-30T12:42:18;98940.27;;;20.46;40.55
41102;BME280;26845;50.190;19.178;2023-04-30T12:48:28;98944.33;;;20.85;41.04
41102;BME280;26845;50.190;19.178;2023-04-30T12:51:34;98945.62;;;21.10;41.29
41102;BME280;26845;50.190;19.178;2023-04-30T12:54:40;98938.48;;;21.28;40.87
41102;BME280;26845;50.190;19.178;2023-04-30T12:58:01;98937.56;;;21.32;40.95
41102;BME280;26845;50.190;19.178;2023-04-30T13:01:10;98933.31;;;21.53;40.85
41102;BME280;26845;50.190;19.178;2023-04-30T13:04:15;98931.21;;;21.28;39.24
41102;BME280;26845;50.190;19.178;2023-04-30T13:07:21;98931.90;;;20.92;37.60
41102;BME280;26845;50.190;19.178;2023-04-30T13:10:27;98931.71;;;20.58;39.54
41102;BME280;26845;50.190;19.178;2023-04-30T13:13:32;98920.45;;;20.75;40.24
41102;BME280;26845;50.190;19.178;2023-04-30T13:16:41;98918.52;;;20.93;39.65
41102;BME280;26845;50.190;19.178;2023-04-30T13:19:47;98921.80;;;21.09;39.59
41102;BME280;26845;50.190;19.178;2023-04-30T13:22:52;98920.16;;;21.21;38.93
41102;BME280;26845;50.190;19.178;2023-04-30T13:25:58;98919.38;;;21.31;39.26
41102;BME280;26845;50.190;19.178;2023-04-30T13:29:04;98918.08;;;21.29;37.24
41102;BME280;26845;50.190;19.178;2023-04-30T13:32:10;98911.60;;;20.72;36.99
41102;BME280;26845;50.190;19.178;2023-04-30T13:35:15;98909.31;;;20.64;38.24
41102;BME280;26845;50.190;19.178;2023-04-30T13:38:21;98914.60;;;20.40;37.54
41102;BME280;26845;50.190;19.178;2023-04-30T13:41:27;98921.04;;;20.34;37.39
41102;BME280;26845;50.190;19.178;2023-04-30T13:44:32;98916.46;;;20.25;37.43
41102;BME280;26845;50.190;19.178;2023-04-30T13:47:38;98919.70;;;20.37;37.44
41102;BME280;26845;50.190;19.178;2023-04-30T13:50:44;98922.25;;;20.40;37.93
41102;BME280;26845;50.190;19.178;2023-04-30T13:53:49;98921.64;;;20.52;38.31
41102;BME280;26845;50.190;19.178;2023-04-30T13:56:55;98918.74;;;20.63;38.08
41102;BME280;26845;50.190;19.178;2023-04-30T14:00:01;98923.05;;;20.76;37.84
41102;BME280;26845;50.190;19.178;2023-04-30T14:03:07;98922.25;;;20.77;37.94
41102;BME280;26845;50.190;19.178;2023-04-30T14:06:12;98929.13;;;20.90;37.47
41102;BME280;26845;50.190;19.178;2023-04-30T14:09:18;98928.95;;;20.84;37.18
41102;BME280;26845;50.190;19.178;2023-04-30T14:12:24;98930.91;;;20.73;37.41
41102;BME280;26845;50.190;19.178;2023-04-30T14:15:30;98925.95;;;20.71;37.43
41102;BME280;26845;50.190;19.178;2023-04-30T14:18:35;98927.67;;;20.78;37.55
41102;BME280;26845;50.190;19.178;2023-04-30T14:21:41;98918.77;;;20.87;37.27
41102;BME280;26845;50.190;19.178;2023-04-30T14:24:46;98921.38;;;20.72;36.53
41102;BME280;26845;50.190;19.178;2023-04-30T14:27:52;98926.33;;;20.42;37.00
41102;BME280;26845;50.190;19.178;2023-04-30T14:30:58;98929.59;;;20.34;37.36
41102;BME280;26845;50.190;19.178;2023-04-30T14:34:04;98924.63;;;20.31;37.54
41102;BME280;26845;50.190;19.178;2023-04-30T14:37:10;98929.80;;;20.38;37.39
41102;BME280;26845;50.190;19.178;2023-04-30T14:40:15;98931.79;;;20.41;36.91
41102;BME280;26845;50.190;19.178;2023-04-30T14:43:21;98926.52;;;19.87;35.40
41102;BME280;26845;50.190;19.178;2023-04-30T14:46:26;98928.96;;;19.09;34.80
41102;BME280;26845;50.190;19.178;2023-04-30T14:49:32;98933.31;;;18.51;36.07
41102;BME280;26845;50.190;19.178;2023-04-30T14:52:38;98930.95;;;18.53;37.02
41102;BME280;26845;50.190;19.178;2023-04-30T14:55:43;98926.23;;;18.72;37.00
41102;BME280;26845;50.190;19.178;2023-04-30T14:58:49;98926.94;;;18.89;37.04
41102;BME280;26845;50.190;19.178;2023-04-30T15:01:57;98923.20;;;19.02;36.81
41102;BME280;26845;50.190;19.178;2023-04-30T15:05:03;98920.61;;;19.06;36.92
41102;BME280;26845;50.190;19.178;2023-04-30T15:08:09;98926.84;;;19.06;36.47
41102;BME280;26845;50.190;19.178;2023-04-30T15:11:14;98923.41;;;18.82;36.15
41102;BME280;26845;50.190;19.178;2023-04-30T15:14:20;98924.71;;;18.34;35.43
41102;BME280;26845;50.190;19.178;2023-04-30T15:17:26;98930.74;;;18.14;36.62
41102;BME280;26845;50.190;19.178;2023-04-30T15:20:31;98928.98;;;18.24;36.92
41102;BME280;26845;50.190;19.178;2023-04-30T15:23:37;98935.56;;;18.34;36.50
41102;BME280;26845;50.190;19.178;2023-04-30T15:26:46;98933.85;;;18.36;36.44
41102;BME280;26845;50.190;19.178;2023-04-30T15:29:52;98934.81;;;18.36;36.28
41102;BME280;26845;50.190;19.178;2023-04-30T15:32:57;98939.10;;;18.37;36.28
41102;BME280;26845;50.190;19.178;2023-04-30T15:36:06;98940.12;;;18.36;37.14
41102;BME280;26845;50.190;19.178;2023-04-30T15:39:11;98933.92;;;18.50;38.27
41102;BME280;26845;50.190;19.178;2023-04-30T15:42:17;98936.61;;;18.65;36.88
41102;BME280;26845;50.190;19.178;2023-04-30T15:45:23;98936.30;;;18.69;36.38
41102;BME280;26845;50.190;19.178;2023-04-30T15:48:31;98937.96;;;18.57;36.22
41102;BME280;26845;50.190;19.178;2023-04-30T15:51:37;98935.66;;;18.51;36.24
41102;BME280;26845;50.190;19.178;2023-04-30T15:54:43;98934.66;;;18.47;36.29
41102;BME280;26845;50.190;19.178;2023-04-30T15:57:49;98933.67;;;18.36;35.83
41102;BME280;26845;50.190;19.178;2023-04-30T16:00:54;98931.34;;;18.22;35.54
41102;BME280;26845;50.190;19.178;2023-04-30T16:04:00;98939.45;;;18.05;35.83
41102;BME280;26845;50.190;19.178;2023-04-30T16:07:06;98936.72;;;17.99;36.25
41102;BME280;26845;50.190;19.178;2023-04-30T16:10:11;98938.04;;;17.97;36.22
41102;BME280;26845;50.190;19.178;2023-04-30T16:13:17;98933.64;;;17.95;36.33
41102;BME280;26845;50.190;19.178;2023-04-30T16:16:23;98933.27;;;17.86;36.06
41102;BME280;26845;50.190;19.178;2023-04-30T16:19:20;98930.64;;;17.66;35.97
41102;BME280;26845;50.190;19.178;2023-04-30T16:21:53;98932.10;;;17.55;36.45
41102;BME280;26845;50.190;19.178;2023-04-30T16:24:24;98934.02;;;17.49;36.49
41102;BME280;26845;50.190;19.178;2023-04-30T16:29:31;98938.79;;;17.21;36.07
41102;BME280;26845;50.190;19.178;2023-04-30T16:32:36;98936.61;;;17.12;36.04
41102;BME280;26845;50.190;19.178;2023-04-30T16:35:42;98936.38;;;16.96;36.09
41102;BME280;26845;50.190;19.178;2023-04-30T16:38:48;98939.41;;;16.84;37.02
41102;BME280;26845;50.190;19.178;2023-04-30T16:41:53;98938.48;;;16.92;37.26
41102;BME280;26845;50.190;19.178;2023-04-30T16:44:59;98934.00;;;16.96;36.85
41102;BME280;26845;50.190;19.178;2023-04-30T16:48:05;98932.98;;;16.93;37.13
41102;BME280;26845;50.190;19.178;2023-04-30T16:51:10;98938.55;;;16.88;36.99
41102;BME280;26845;50.190;19.178;2023-04-30T16:54:16;98938.14;;;16.70;36.70
41102;BME280;26845;50.190;19.178;2023-04-30T16:57:22;98945.67;;;16.44;36.89
41102;BME280;26845;50.190;19.178;2023-04-30T16:59:55;98944.51;;;16.30;36.84
41102;BME280;26845;50.190;19.178;2023-04-30T17:03:01;98948.11;;;16.25;37.86
41102;BME280;26845;50.190;19.178;2023-04-30T17:06:07;98953.27;;;16.33;37.92
41102;BME280;26845;50.190;19.178;2023-04-30T17:09:13;98958.42;;;16.24;37.37
41102;BME280;26845;50.190;19.178;2023-04-30T17:11:46;98962.16;;;15.94;36.90
41102;BME280;26845;50.190;19.178;2023-04-30T17:14:58;98969.14;;;15.58;36.87
41102;BME280;26845;50.190;19.178;2023-04-30T17:18:04;98968.29;;;15.32;37.09
41102;BME280;26845;50.190;19.178;2023-04-30T17:21:09;98974.19;;;15.14;37.10
41102;BME280;26845;50.190;19.178;2023-04-30T17:24:16;98979.64;;;14.98;37.21
41102;BME280;26845;50.190;19.178;2023-04-30T17:27:22;98982.13;;;14.81;37.40
41102;BME280;26845;50.190;19.178;2023-04-30T17:30:27;98986.19;;;14.66;37.46
41102;BME280;26845;50.190;19.178;2023-04-30T17:33:33;98989.79;;;14.54;37.66
41102;BME280;26845;50.190;19.178;2023-04-30T17:38:46;98999.26;;;14.38;37.45
41102;BME280;26845;50.190;19.178;2023-04-30T17:41:52;98996.55;;;14.22;37.50
41102;BME280;26845;50.190;19.178;2023-04-30T17:44:49;99001.56;;;14.12;38.20
41102;BME280;26845;50.190;19.178;2023-04-30T17:47:55;99004.52;;;14.12;37.95
41102;BME280;26845;50.190;19.178;2023-04-30T17:50:53;99010.73;;;14.02;37.68
41102;BME280;26845;50.190;19.178;2023-04-30T17:53:59;99016.27;;;13.90;37.97
41102;BME280;26845;50.190;19.178;2023-04-30T17:57:05;99018.49;;;14.03;38.98
41102;BME280;26845;50.190;19.178;2023-04-30T18:00:04;99021.60;;;14.16;38.03
41102;BME280;26845;50.190;19.178;2023-04-30T18:02:40;99023.91;;;14.01;37.65
41102;BME280;26845;50.190;19.178;2023-04-30T18:12:53;99035.54;;;13.36;37.86
41102;BME280;26845;50.190;19.178;2023-04-30T18:15:26;99038.24;;;13.23;37.96
41102;BME280;26845;50.190;19.178;2023-04-30T18:18:32;99036.14;;;13.06;38.03
41102;BME280;26845;50.190;19.178;2023-04-30T18:21:38;99037.89;;;12.88;37.95
41102;BME280;26845;50.190;19.178;2023-04-30T18:24:14;99038.40;;;12.71;38.03
41102;BME280;26845;50.190;19.178;2023-04-30T18:26:51;99039.77;;;12.60;38.27
41102;BME280;26845;50.190;19.178;2023-04-30T18:29:24;99043.75;;;12.58;39.10
41102;BME280;26845;50.190;19.178;2023-04-30T18:32:21;99043.36;;;12.78;40.58
41102;BME280;26845;50.190;19.178;2023-04-30T18:34:55;99044.30;;;13.24;40.74
41102;BME280;26845;50.190;19.178;2023-04-30T18:37:28;99047.56;;;13.37;39.58
41102;BME280;26845;50.190;19.178;2023-04-30T18:40:04;99054.13;;;13.29;39.34
41102;BME280;26845;50.190;19.178;2023-04-30T18:43:13;99056.60;;;13.16;39.46
41102;BME280;26845;50.190;19.178;2023-04-30T18:45:50;99058.51;;;13.01;39.32
41102;BME280;26845;50.190;19.178;2023-04-30T18:48:33;99061.09;;;12.86;39.21
41102;BME280;26845;50.190;19.178;2023-04-30T18:51:07;99062.84;;;12.74;39.17
41102;BME280;26845;50.190;19.178;2023-04-30T18:53:41;99062.98;;;12.61;39.13
41102;BME280;26845;50.190;19.178;2023-04-30T18:56:14;99063.95;;;12.46;39.17
41102;BME280;26845;50.190;19.178;2023-04-30T18:58:48;99063.06;;;12.34;39.23
41102;BME280;26845;50.190;19.178;2023-04-30T19:01:21;99068.36;;;12.21;39.40
41102;BME280;26845;50.190;19.178;2023-04-30T19:03:55;99068.83;;;12.10;39.58
41102;BME280;26845;50.190;19.178;2023-04-30T19:06:28;99070.89;;;11.99;39.48
41102;BME280;26845;50.190;19.178;2023-04-30T19:09:12;99075.44;;;11.87;39.56
41102;BME280;26845;50.190;19.178;2023-04-30T19:11:46;99075.54;;;11.78;39.60
41102;BME280;26845;50.190;19.178;2023-04-30T19:14:19;99076.33;;;11.70;39.62
41102;BME280;26845;50.190;19.178;2023-04-30T19:16:54;99077.41;;;11.64;39.79
41102;BME280;26845;50.190;19.178;2023-04-30T19:19:28;99084.33;;;11.56;39.89
41102;BME280;26845;50.190;19.178;2023-04-30T19:22:01;99081.89;;;11.49;39.98
41102;BME280;26845;50.190;19.178;2023-04-30T19:24:35;99085.63;;;11.42;40.23
41102;BME280;26845;50.190;19.178;2023-04-30T19:27:08;99089.63;;;11.35;40.15
41102;BME280;26845;50.190;19.178;2023-04-30T19:30:05;99089.92;;;11.18;40.31
41102;BME280;26845;50.190;19.178;2023-04-30T19:32:39;99089.59;;;11.06;40.75
41102;BME280;26845;50.190;19.178;2023-04-30T19:35:12;99089.61;;;11.00;40.79
41102;BME280;26845;50.190;19.178;2023-04-30T19:37:46;99092.31;;;10.94;41.13
41102;BME280;26845;50.190;19.178;2023-04-30T19:40:19;99093.98;;;10.87;41.04
41102;BME280;26845;50.190;19.178;2023-04-30T19:42:53;99098.60;;;10.81;41.12
41102;BME280;26845;50.190;19.178;2023-04-30T19:45:26;99100.09;;;10.74;41.38
41102;BME280;26845;50.190;19.178;2023-04-30T19:48:00;99103.80;;;10.66;41.68
41102;BME280;26845;50.190;19.178;2023-04-30T19:50:33;99102.13;;;10.53;41.94
41102;BME280;26845;50.190;19.178;2023-04-30T19:53:07;99105.51;;;10.41;42.20
41102;BME280;26845;50.190;19.178;2023-04-30T19:55:40;99104.50;;;10.29;42.12
41102;BME280;26845;50.190;19.178;2023-04-30T19:58:14;99105.75;;;10.14;42.02
41102;BME280;26845;50.190;19.178;2023-04-30T20:00:47;99107.91;;;9.97;42.05
41102;BME280;26845;50.190;19.178;2023-04-30T20:03:21;99111.34;;;9.85;42.31
41102;BME280;26845;50.190;19.178;2023-04-30T20:05:54;99111.24;;;9.74;42.34
41102;BME280;26845;50.190;19.178;2023-04-30T20:08:28;99112.36;;;9.64;42.69
41102;BME280;26845;50.190;19.178;2023-04-30T20:11:01;99109.08;;;9.58;42.98
41102;BME280;26845;50.190;19.178;2023-04-30T20:13:35;99107.89;;;9.53;43.35
41102;BME280;26845;50.190;19.178;2023-04-30T20:16:08;99112.80;;;9.48;43.56
41102;BME280;26845;50.190;19.178;2023-04-30T20:18:42;99115.21;;;9.42;43.37
41102;BME280;26845;50.190;19.178;2023-04-30T20:21:15;99112.77;;;9.36;43.52
41102;BME280;26845;50.190;19.178;2023-04-30T20:23:49;99114.88;;;9.32;43.68
41102;BME280;26845;50.190;19.178;2023-04-30T20:26:22;99114.10;;;9.25;43.79
41102;BME280;26845;50.190;19.178;2023-04-30T20:28:56;99115.02;;;9.16;43.79
41102;BME280;26845;50.190;19.178;2023-04-30T20:31:29;99117.43;;;8.98;43.74
41102;BME280;26845;50.190;19.178;2023-04-30T20:34:02;99116.11;;;8.82;43.97
41102;BME280;26845;50.190;19.178;2023-04-30T20:36:38;99119.63;;;8.70;44.32
41102;BME280;26845;50.190;19.178;2023-04-30T20:39:11;99124.87;;;8.63;44.57
41102;BME280;26845;50.190;19.178;2023-04-30T20:41:45;99123.05;;;8.58;44.91
41102;BME280;26845;50.190;19.178;2023-04-30T20:44:18;99118.02;;;8.53;45.00
41102;BME280;26845;50.190;19.178;2023-04-30T20:46:51;99116.98;;;8.48;45.37
41102;BME280;26845;50.190;19.178;2023-04-30T20:49:25;99117.66;;;8.41;45.62
41102;BME280;26845;50.190;19.178;2023-04-30T20:51:58;99116.67;;;8.38;45.76
41102;BME280;26845;50.190;19.178;2023-04-30T20:54:32;99114.27;;;8.32;45.62
41102;BME280;26845;50.190;19.178;2023-04-30T20:57:05;99115.63;;;8.26;45.47
41102;BME280;26845;50.190;19.178;2023-04-30T20:59:39;99117.94;;;8.18;45.90
41102;BME280;26845;50.190;19.178;2023-04-30T21:02:12;99119.90;;;8.11;45.75
41102;BME280;26845;50.190;19.178;2023-04-30T21:04:46;99121.18;;;8.04;46.08
41102;BME280;26845;50.190;19.178;2023-04-30T21:07:19;99120.79;;;8.00;46.61
41102;BME280;26845;50.190;19.178;2023-04-30T21:09:53;99125.38;;;7.95;47.02
41102;BME280;26845;50.190;19.178;2023-04-30T21:12:26;99125.71;;;7.88;47.19
41102;BME280;26845;50.190;19.178;2023-04-30T21:15:00;99130.14;;;7.81;47.30
41102;BME280;26845;50.190;19.178;2023-04-30T21:17:33;99125.40;;;7.74;47.57
41102;BME280;26845;50.190;19.178;2023-04-30T21:20:07;99131.61;;;7.67;47.86
41102;BME280;26845;50.190;19.178;2023-04-30T21:22:40;99137.80;;;7.61;47.95
41102;BME280;26845;50.190;19.178;2023-04-30T21:25:14;99134.63;;;7.56;48.11
41102;BME280;26845;50.190;19.178;2023-04-30T21:27:47;99136.08;;;7.49;48.26
41102;BME280;26845;50.190;19.178;2023-04-30T21:30:21;99137.55;;;7.43;48.34
41102;BME280;26845;50.190;19.178;2023-04-30T21:32:54;99140.02;;;7.38;48.52
41102;BME280;26845;50.190;19.178;2023-04-30T21:35:28;99143.21;;;7.33;48.63
41102;BME280;26845;50.190;19.178;2023-04-30T21:38:01;99148.55;;;7.29;49.01
41102;BME280;26845;50.190;19.178;2023-04-30T21:40:35;99149.91;;;7.24;49.01
41102;BME280;26845;50.190;19.178;2023-04-30T21:43:08;99152.78;;;7.16;49.24
41102;BME280;26845;50.190;19.178;2023-04-30T21:45:42;99157.36;;;7.10;49.50
41102;BME280;26845;50.190;19.178;2023-04-30T21:48:15;99160.41;;;7.06;49.52
41102;BME280;26845;50.190;19.178;2023-04-30T21:50:54;99158.98;;;6.96;49.71
41102;BME280;26845;50.190;19.178;2023-04-30T21:53:34;99165.50;;;6.85;49.66
41102;BME280;26845;50.190;19.178;2023-04-30T21:56:15;99163.06;;;6.74;49.69
41102;BME280;26845;50.190;19.178;2023-04-30T21:58:55;99165.85;;;6.68;50.21
41102;BME280;26845;50.190;19.178;2023-04-30T22:01:35;99172.49;;;6.63;50.05
41102;BME280;26845;50.190;19.178;2023-04-30T22:04:14;99173.56;;;6.58;50.51
41102;BME280;26845;50.190;19.178;2023-04-30T22:06:55;99170.99;;;6.52;50.71
41102;BME280;26845;50.190;19.178;2023-04-30T22:09:35;99173.50;;;6.44;51.00
41102;BME280;26845;50.190;19.178;2023-04-30T22:12:15;99174.39;;;6.38;51.24
41102;BME280;26845;50.190;19.178;2023-04-30T22:14:55;99175.45;;;6.34;51.32
41102;BME280;26845;50.190;19.178;2023-04-30T22:17:53;99175.91;;;6.28;51.46
41102;BME280;26845;50.190;19.178;2023-04-30T22:20:33;99179.85;;;6.22;51.55
41102;BME280;26845;50.190;19.178;2023-04-30T22:23:13;99182.62;;;6.15;51.70
41102;BME280;26845;50.190;19.178;2023-04-30T22:25:54;99184.78;;;6.06;51.95
41102;BME280;26845;50.190;19.178;2023-04-30T22:28:34;99187.38;;;5.99;51.92
41102;BME280;26845;50.190;19.178;2023-04-30T22:31:13;99187.55;;;5.93;52.14
41102;BME280;26845;50.190;19.178;2023-04-30T22:33:53;99189.52;;;5.87;52.51
41102;BME280;26845;50.190;19.178;2023-04-30T22:36:33;99191.94;;;5.83;52.58
41102;BME280;26845;50.190;19.178;2023-04-30T22:39:14;99193.54;;;5.81;52.76
41102;BME280;26845;50.190;19.178;2023-04-30T22:41:53;99194.75;;;5.80;52.81
41102;BME280;26845;50.190;19.178;2023-04-30T22:44:34;99197.40;;;5.78;53.18
41102;BME280;26845;50.190;19.178;2023-04-30T22:47:14;99194.81;;;5.77;53.57
41102;BME280;26845;50.190;19.178;2023-04-30T22:49:54;99201.14;;;5.72;53.56
41102;BME280;26845;50.190;19.178;2023-04-30T22:52:33;99204.85;;;5.67;53.72
41102;BME280;26845;50.190;19.178;2023-04-30T22:55:13;99212.29;;;5.60;53.80
41102;BME280;26845;50.190;19.178;2023-04-30T22:57:53;99213.44;;;5.53;54.04
41102;BME280;26845;50.190;19.178;2023-04-30T23:00:33;99213.70;;;5.45;53.99
41102;BME280;26845;50.190;19.178;2023-04-30T23:03:13;99213.90;;;5.37;54.23
41102;BME280;26845;50.190;19.178;2023-04-30T23:05:53;99214.39;;;5.31;54.28
41102;BME280;26845;50.190;19.178;2023-04-30T23:08:33;99213.48;;;5.21;54.44
41102;BME280;26845;50.190;19.178;2023-04-30T23:11:13;99209.31;;;5.10;54.56
41102;BME280;26845;50.190;19.178;2023-04-30T23:13:53;99212.94;;;5.02;54.82
41102;BME280;26845;50.190;19.178;2023-04-30T23:16:33;99217.91;;;4.92;54.87
41102;BME280;26845;50.190;19.178;2023-04-30T23:19:13;99214.13;;;4.82;54.97
41102;BME280;26845;50.190;19.178;2023-04-30T23:21:53;99213.05;;;4.76;55.17
41102;BME280;26845;50.190;19.178;2023-04-30T23:24:33;99214.68;;;4.70;55.12
41102;BME280;26845;50.190;19.178;2023-04-30T23:27:13;99215.59;;;4.64;55.27
41102;BME280;26845;50.190;19.178;2023-04-30T23:29:53;99217.43;;;4.58;55.47
41102;BME280;26845;50.190;19.178;2023-04-30T23:32:33;99217.02;;;4.53;55.66
41102;BME280;26845;50.190;19.178;2023-04-30T23:35:16;99218.58;;;4.45;55.70
41102;BME280;26845;50.190;19.178;2023-04-30T23:37:53;99218.73;;;4.36;55.78